Aeroporto :
LOGIN :

Iscrizione | Disclaimer

   EN    FR    IT 

 










Sommario :    VFR   VFR Marginale   IFR   IFR Intensivo   IFR Molto Intensivo
Visibilità : 
Base nubi : 
>= 8 km
>= 3000ft
5 / 8 km
1000 / 3000 ft
1500m / 5 km
500 / 1000 ft
800 / 1500m
200 / 500 ft
< 800m
< 200 ft
Simboli :   Temporali  Nebbia  Neve Forte  Precipitazioni Forti  Vento > 20 kt
SIGMETs :   Varie  Temporali  Ghiacco  Turbolenza  Onda orograficha  Ceneri Vulcaniche







- Altitudine del aeroporto : 37 ft
- Codice IATA : OLB


LIEO - Olbia Costa Smeralda

ULTIMO METAR :
  • 152050Z VRB01KT CAVOK 20/17 Q1016

METARs OBSOLETI :
  • 152020Z VRB01KT CAVOK 21/18 Q1016
  • 151950Z 04003KT 360V060 CAVOK 22/18 Q1016
  • 151920Z 05005KT CAVOK 22/18 Q1016
  • 151850Z 05007KT CAVOK 23/17 Q1016
  • 151820Z 05006KT CAVOK 25/18 Q1015

TAF TAF LIEO
Valido dal 15 a 18 ore il 16 a 18 ore UTC


151700Z 1518/1618 24010KT CAVOK
BECMG 1609/1611 06012KT
BECMG 1615/1617 VRB05KT
Nessun NOTAM noto per questo aeroporto.



MetMap, La meteo Aeronautica in un colpo d'occhio ! - Copyright ORBIFLY Dicembre 2007 - Disclaimer

ORBIFLY MET'MAP TEAM :

Programmazione e sviluppo : Alexandra Zaïnal
Concezione e sviluppo : Baudouin d'Aumeries
Co-Programmazione e sviluppo : Marc-Olivier Méhu
Supporto tecnico e logistico : Manuel Goepfert
Aiuto per la traduzione : Arnaldo La Scala

Contatto : metmap@orbifly.com




FONTI E CREDITI :

   NOAA